sensor_id;sensor_type;location;lat;lon;timestamp;temperature;humidity
27890;DHT22;15238;49.082;9.102;2023-06-04T00:01:29;13.90;98.60
27890;DHT22;15238;49.082;9.102;2023-06-04T00:03:30;13.90;98.60
27890;DHT22;15238;49.082;9.102;2023-06-04T00:05:31;13.90;98.60
27890;DHT22;15238;49.082;9.102;2023-06-04T00:07:32;13.90;98.60
27890;DHT22;15238;49.082;9.102;2023-06-04T00:09:32;13.80;98.70
27890;DHT22;15238;49.082;9.102;2023-06-04T00:11:33;13.70;98.70
27890;DHT22;15238;49.082;9.102;2023-06-04T00:13:34;13.70;98.70
27890;DHT22;15238;49.082;9.102;2023-06-04T00:15:34;13.70;98.50
27890;DHT22;15238;49.082;9.102;2023-06-04T00:17:35;13.70;98.40
27890;DHT22;15238;49.082;9.102;2023-06-04T00:19:37;13.70;98.30
27890;DHT22;15238;49.082;9.102;2023-06-04T00:21:38;13.70;98.30
27890;DHT22;15238;49.082;9.102;2023-06-04T00:23:38;13.60;98.30
27890;DHT22;15238;49.082;9.102;2023-06-04T00:25:39;13.60;98.30
27890;DHT22;15238;49.082;9.102;2023-06-04T00:27:39;13.50;98.40
27890;DHT22;15238;49.082;9.102;2023-06-04T00:29:40;13.50;98.50
27890;DHT22;15238;49.082;9.102;2023-06-04T00:31:40;13.40;98.60
27890;DHT22;15238;49.082;9.102;2023-06-04T00:33:41;13.30;98.60
27890;DHT22;15238;49.082;9.102;2023-06-04T00:35:42;13.30;98.80
27890;DHT22;15238;49.082;9.102;2023-06-04T00:37:42;13.20;98.70
27890;DHT22;15238;49.082;9.102;2023-06-04T00:39:43;13.20;98.60
27890;DHT22;15238;49.082;9.102;2023-06-04T00:41:43;13.20;98.60
27890;DHT22;15238;49.082;9.102;2023-06-04T00:43:44;13.20;98.40
27890;DHT22;15238;49.082;9.102;2023-06-04T00:45:55;13.20;98.70
27890;DHT22;15238;49.082;9.102;2023-06-04T00:47:56;13.20;98.50
27890;DHT22;15238;49.082;9.102;2023-06-04T00:49:57;13.10;98.50
27890;DHT22;15238;49.082;9.102;2023-06-04T00:51:59;13.10;98.50
27890;DHT22;15238;49.082;9.102;2023-06-04T00:54:02;13.00;98.50
27890;DHT22;15238;49.082;9.102;2023-06-04T00:56:09;13.00;98.60
27890;DHT22;15238;49.082;9.102;2023-06-04T00:58:10;13.00;98.50
27890;DHT22;15238;49.082;9.102;2023-06-04T01:00:11;13.00;98.60
27890;DHT22;15238;49.082;9.102;2023-06-04T01:02:14;12.90;98.70
27890;DHT22;15238;49.082;9.102;2023-06-04T01:04:26;12.90;98.80
27890;DHT22;15238;49.082;9.102;2023-06-04T01:06:45;12.80;98.80
27890;DHT22;15238;49.082;9.102;2023-06-04T01:08:50;12.70;98.90
27890;DHT22;15238;49.082;9.102;2023-06-04T01:10:54;12.70;99.10
27890;DHT22;15238;49.082;9.102;2023-06-04T01:12:56;12.60;99.10
27890;DHT22;15238;49.082;9.102;2023-06-04T01:14:56;12.70;98.90
27890;DHT22;15238;49.082;9.102;2023-06-04T01:21:38;12.60;99.00
27890;DHT22;15238;49.082;9.102;2023-06-04T01:23:48;12.50;99.10
27890;DHT22;15238;49.082;9.102;2023-06-04T01:25:51;12.50;99.10
27890;DHT22;15238;49.082;9.102;2023-06-04T01:27:55;12.40;99.30
27890;DHT22;15238;49.082;9.102;2023-06-04T01:29:56;12.40;99.30
27890;DHT22;15238;49.082;9.102;2023-06-04T01:31:58;12.30;99.30
27890;DHT22;15238;49.082;9.102;2023-06-04T01:33:58;12.30;99.40
27890;DHT22;15238;49.082;9.102;2023-06-04T01:35:59;12.30;99.40
27890;DHT22;15238;49.082;9.102;2023-06-04T01:38:01;12.30;99.10
27890;DHT22;15238;49.082;9.102;2023-06-04T01:40:02;12.40;99.00
27890;DHT22;15238;49.082;9.102;2023-06-04T01:42:03;12.30;99.00
27890;DHT22;15238;49.082;9.102;2023-06-04T01:44:03;12.40;98.90
27890;DHT22;15238;49.082;9.102;2023-06-04T01:46:04;12.40;98.80
27890;DHT22;15238;49.082;9.102;2023-06-04T01:48:05;12.40;98.60
27890;DHT22;15238;49.082;9.102;2023-06-04T01:50:07;12.50;98.60
27890;DHT22;15238;49.082;9.102;2023-06-04T01:52:13;12.40;98.80
27890;DHT22;15238;49.082;9.102;2023-06-04T01:54:13;12.30;99.00
27890;DHT22;15238;49.082;9.102;2023-06-04T01:56:14;12.20;99.10
27890;DHT22;15238;49.082;9.102;2023-06-04T01:58:15;12.30;99.20
27890;DHT22;15238;49.082;9.102;2023-06-04T02:00:23;12.20;99.20
27890;DHT22;15238;49.082;9.102;2023-06-04T02:02:24;12.20;99.30
27890;DHT22;15238;49.082;9.102;2023-06-04T02:04:25;12.20;99.00
27890;DHT22;15238;49.082;9.102;2023-06-04T02:06:26;12.20;99.10
27890;DHT22;15238;49.082;9.102;2023-06-04T02:08:30;12.20;99.00
27890;DHT22;15238;49.082;9.102;2023-06-04T02:10:30;12.20;99.20
27890;DHT22;15238;49.082;9.102;2023-06-04T02:12:31;12.10;99.20
27890;DHT22;15238;49.082;9.102;2023-06-04T02:14:31;12.10;99.20
27890;DHT22;15238;49.082;9.102;2023-06-04T02:16:32;12.20;99.20
27890;DHT22;15238;49.082;9.102;2023-06-04T02:18:32;12.20;99.10
27890;DHT22;15238;49.082;9.102;2023-06-04T02:20:33;12.20;99.00
27890;DHT22;15238;49.082;9.102;2023-06-04T02:22:33;12.30;98.90
27890;DHT22;15238;49.082;9.102;2023-06-04T02:24:34;12.30;98.70
27890;DHT22;15238;49.082;9.102;2023-06-04T02:26:34;12.10;99.00
27890;DHT22;15238;49.082;9.102;2023-06-04T02:28:35;12.00;99.50
27890;DHT22;15238;49.082;9.102;2023-06-04T02:30:36;12.00;99.70
27890;DHT22;15238;49.082;9.102;2023-06-04T02:32:36;11.90;99.80
27890;DHT22;15238;49.082;9.102;2023-06-04T02:34:37;11.90;99.80
27890;DHT22;15238;49.082;9.102;2023-06-04T02:36:37;11.90;99.80
27890;DHT22;15238;49.082;9.102;2023-06-04T02:38:38;11.80;99.80
27890;DHT22;15238;49.082;9.102;2023-06-04T02:40:39;11.90;99.60
27890;DHT22;15238;49.082;9.102;2023-06-04T02:42:39;11.90;99.70
27890;DHT22;15238;49.082;9.102;2023-06-04T02:44:40;11.90;99.80
27890;DHT22;15238;49.082;9.102;2023-06-04T02:46:41;11.90;99.50
27890;DHT22;15238;49.082;9.102;2023-06-04T02:48:41;12.00;99.50
27890;DHT22;15238;49.082;9.102;2023-06-04T02:50:42;12.00;99.30
27890;DHT22;15238;49.082;9.102;2023-06-04T02:52:43;11.90;99.50
27890;DHT22;15238;49.082;9.102;2023-06-04T02:54:43;11.80;99.70
27890;DHT22;15238;49.082;9.102;2023-06-04T02:56:44;11.80;99.90
27890;DHT22;15238;49.082;9.102;2023-06-04T02:58:52;11.80;99.90
27890;DHT22;15238;49.082;9.102;2023-06-04T03:00:53;11.80;99.90
27890;DHT22;15238;49.082;9.102;2023-06-04T03:02:54;11.70;99.90
27890;DHT22;15238;49.082;9.102;2023-06-04T03:05:01;11.80;99.90
27890;DHT22;15238;49.082;9.102;2023-06-04T03:07:03;11.70;99.90
27890;DHT22;15238;49.082;9.102;2023-06-04T03:09:04;11.80;99.90
27890;DHT22;15238;49.082;9.102;2023-06-04T03:11:05;11.80;99.90
27890;DHT22;15238;49.082;9.102;2023-06-04T03:13:05;11.70;99.90
27890;DHT22;15238;49.082;9.102;2023-06-04T03:15:06;11.70;99.90
27890;DHT22;15238;49.082;9.102;2023-06-04T03:17:07;11.70;99.90
27890;DHT22;15238;49.082;9.102;2023-06-04T03:19:07;11.60;99.90
27890;DHT22;15238;49.082;9.102;2023-06-04T03:21:09;11.60;99.90
27890;DHT22;15238;49.082;9.102;2023-06-04T03:23:11;11.50;99.90
27890;DHT22;15238;49.082;9.102;2023-06-04T03:25:12;11.50;99.90
27890;DHT22;15238;49.082;9.102;2023-06-04T03:27:13;11.50;99.90
27890;DHT22;15238;49.082;9.102;2023-06-04T03:29:13;11.50;99.90
27890;DHT22;15238;49.082;9.102;2023-06-04T03:31:14;11.50;99.90
27890;DHT22;15238;49.082;9.102;2023-06-04T03:33:15;11.50;99.90
27890;DHT22;15238;49.082;9.102;2023-06-04T03:35:15;11.50;99.90
27890;DHT22;15238;49.082;9.102;2023-06-04T03:37:17;11.50;99.90
27890;DHT22;15238;49.082;9.102;2023-06-04T03:39:18;11.50;99.90
27890;DHT22;15238;49.082;9.102;2023-06-04T03:41:18;11.50;99.90
27890;DHT22;15238;49.082;9.102;2023-06-04T03:43:20;11.50;99.90
27890;DHT22;15238;49.082;9.102;2023-06-04T03:45:20;11.50;99.90
27890;DHT22;15238;49.082;9.102;2023-06-04T03:47:21;11.40;99.90
27890;DHT22;15238;49.082;9.102;2023-06-04T03:49:22;11.50;99.90
27890;DHT22;15238;49.082;9.102;2023-06-04T03:51:22;11.60;99.90
27890;DHT22;15238;49.082;9.102;2023-06-04T03:53:23;11.60;99.90
27890;DHT22;15238;49.082;9.102;2023-06-04T03:55:23;11.60;99.90
27890;DHT22;15238;49.082;9.102;2023-06-04T03:57:24;11.60;99.90
27890;DHT22;15238;49.082;9.102;2023-06-04T03:59:25;11.70;99.90
27890;DHT22;15238;49.082;9.102;2023-06-04T04:01:25;11.70;99.90
27890;DHT22;15238;49.082;9.102;2023-06-04T04:03:26;11.80;99.90
27890;DHT22;15238;49.082;9.102;2023-06-04T04:05:31;11.90;99.90
27890;DHT22;15238;49.082;9.102;2023-06-04T04:07:32;11.90;99.90
27890;DHT22;15238;49.082;9.102;2023-06-04T04:09:32;11.90;99.90
27890;DHT22;15238;49.082;9.102;2023-06-04T04:11:33;11.90;99.90
27890;DHT22;15238;49.082;9.102;2023-06-04T04:13:34;11.90;99.90
27890;DHT22;15238;49.082;9.102;2023-06-04T04:15:34;11.90;99.90
27890;DHT22;15238;49.082;9.102;2023-06-04T04:17:35;12.00;99.90
27890;DHT22;15238;49.082;9.102;2023-06-04T04:19:36;12.00;99.90
27890;DHT22;15238;49.082;9.102;2023-06-04T04:21:36;12.10;99.90
27890;DHT22;15238;49.082;9.102;2023-06-04T04:23:41;12.10;99.90
27890;DHT22;15238;49.082;9.102;2023-06-04T04:25:41;12.10;99.90
27890;DHT22;15238;49.082;9.102;2023-06-04T04:27:44;12.10;99.90
27890;DHT22;15238;49.082;9.102;2023-06-04T04:29:44;12.10;99.90
27890;DHT22;15238;49.082;9.102;2023-06-04T04:31:48;12.00;99.90
27890;DHT22;15238;49.082;9.102;2023-06-04T04:33:50;12.10;99.90
27890;DHT22;15238;49.082;9.102;2023-06-04T04:35:51;12.10;99.90
27890;DHT22;15238;49.082;9.102;2023-06-04T04:37:52;12.20;99.90
27890;DHT22;15238;49.082;9.102;2023-06-04T04:39:53;12.20;99.90
27890;DHT22;15238;49.082;9.102;2023-06-04T04:41:54;12.20;99.90
27890;DHT22;15238;49.082;9.102;2023-06-04T04:44:03;12.20;99.90
27890;DHT22;15238;49.082;9.102;2023-06-04T04:46:05;12.30;99.90
27890;DHT22;15238;49.082;9.102;2023-06-04T04:48:05;12.40;99.90
27890;DHT22;15238;49.082;9.102;2023-06-04T04:50:06;12.40;99.90
27890;DHT22;15238;49.082;9.102;2023-06-04T04:52:07;12.50;99.60
27890;DHT22;15238;49.082;9.102;2023-06-04T04:54:07;12.50;99.60
27890;DHT22;15238;49.082;9.102;2023-06-04T04:56:08;12.50;99.60
27890;DHT22;15238;49.082;9.102;2023-06-04T04:58:09;12.30;99.90
27890;DHT22;15238;49.082;9.102;2023-06-04T05:00:10;12.30;99.90
27890;DHT22;15238;49.082;9.102;2023-06-04T05:02:10;12.40;99.90
27890;DHT22;15238;49.082;9.102;2023-06-04T05:04:11;12.40;99.90
27890;DHT22;15238;49.082;9.102;2023-06-04T05:06:11;12.30;99.90
27890;DHT22;15238;49.082;9.102;2023-06-04T05:08:12;12.40;99.90
27890;DHT22;15238;49.082;9.102;2023-06-04T05:10:12;12.50;99.70
27890;DHT22;15238;49.082;9.102;2023-06-04T05:12:13;12.60;99.70
27890;DHT22;15238;49.082;9.102;2023-06-04T05:14:14;12.60;99.70
27890;DHT22;15238;49.082;9.102;2023-06-04T05:16:14;12.90;99.20
27890;DHT22;15238;49.082;9.102;2023-06-04T05:18:15;13.20;98.70
27890;DHT22;15238;49.082;9.102;2023-06-04T05:20:20;13.40;97.70
27890;DHT22;15238;49.082;9.102;2023-06-04T05:22:22;13.50;97.80
27890;DHT22;15238;49.082;9.102;2023-06-04T05:24:26;13.60;97.60
27890;DHT22;15238;49.082;9.102;2023-06-04T05:26:26;13.80;97.70
27890;DHT22;15238;49.082;9.102;2023-06-04T05:28:27;14.10;97.10
27890;DHT22;15238;49.082;9.102;2023-06-04T05:30:28;14.10;97.10
27890;DHT22;15238;49.082;9.102;2023-06-04T05:32:29;14.40;96.50
27890;DHT22;15238;49.082;9.102;2023-06-04T05:34:30;14.60;96.40
27890;DHT22;15238;49.082;9.102;2023-06-04T05:36:32;14.70;96.20
27890;DHT22;15238;49.082;9.102;2023-06-04T05:38:33;14.70;96.00
27890;DHT22;15238;49.082;9.102;2023-06-04T05:40:35;15.00;95.90
27890;DHT22;15238;49.082;9.102;2023-06-04T05:42:36;15.30;95.60
27890;DHT22;15238;49.082;9.102;2023-06-04T05:44:37;15.30;94.80
27890;DHT22;15238;49.082;9.102;2023-06-04T05:46:37;15.40;95.20
27890;DHT22;15238;49.082;9.102;2023-06-04T05:48:38;15.60;94.70
27890;DHT22;15238;49.082;9.102;2023-06-04T05:50:38;15.60;94.80
27890;DHT22;15238;49.082;9.102;2023-06-04T05:52:39;15.70;94.30
27890;DHT22;15238;49.082;9.102;2023-06-04T05:54:40;15.80;93.50
27890;DHT22;15238;49.082;9.102;2023-06-04T05:56:40;15.70;94.10
27890;DHT22;15238;49.082;9.102;2023-06-04T05:58:41;15.90;94.40
27890;DHT22;15238;49.082;9.102;2023-06-04T06:00:42;15.70;93.90
27890;DHT22;15238;49.082;9.102;2023-06-04T06:02:42;15.70;94.40
27890;DHT22;15238;49.082;9.102;2023-06-04T06:04:43;15.80;94.40
27890;DHT22;15238;49.082;9.102;2023-06-04T06:06:44;16.00;94.10
27890;DHT22;15238;49.082;9.102;2023-06-04T06:08:48;16.10;93.30
27890;DHT22;15238;49.082;9.102;2023-06-04T06:10:50;16.00;93.80
27890;DHT22;15238;49.082;9.102;2023-06-04T06:12:50;16.00;93.70
27890;DHT22;15238;49.082;9.102;2023-06-04T06:14:51;16.40;93.30
27890;DHT22;15238;49.082;9.102;2023-06-04T06:16:51;16.80;92.10
27890;DHT22;15238;49.082;9.102;2023-06-04T06:18:53;17.10;92.00
27890;DHT22;15238;49.082;9.102;2023-06-04T06:20:54;17.00;91.60
27890;DHT22;15238;49.082;9.102;2023-06-04T06:22:54;16.80;91.90
27890;DHT22;15238;49.082;9.102;2023-06-04T06:24:55;16.60;91.70
27890;DHT22;15238;49.082;9.102;2023-06-04T06:26:55;16.80;91.90
27890;DHT22;15238;49.082;9.102;2023-06-04T06:28:56;16.80;91.70
27890;DHT22;15238;49.082;9.102;2023-06-04T06:30:56;16.60;91.30
27890;DHT22;15238;49.082;9.102;2023-06-04T06:32:57;16.80;91.50
27890;DHT22;15238;49.082;9.102;2023-06-04T06:34:58;17.00;91.70
27890;DHT22;15238;49.082;9.102;2023-06-04T06:36:58;16.90;91.70
27890;DHT22;15238;49.082;9.102;2023-06-04T06:38:59;16.70;92.40
27890;DHT22;15238;49.082;9.102;2023-06-04T06:40:59;16.40;92.10
27890;DHT22;15238;49.082;9.102;2023-06-04T06:43:00;16.30;93.00
27890;DHT22;15238;49.082;9.102;2023-06-04T06:45:01;16.30;92.40
27890;DHT22;15238;49.082;9.102;2023-06-04T06:47:01;16.10;93.30
27890;DHT22;15238;49.082;9.102;2023-06-04T06:49:02;15.90;93.20
27890;DHT22;15238;49.082;9.102;2023-06-04T06:51:03;15.90;93.00
27890;DHT22;15238;49.082;9.102;2023-06-04T06:53:03;15.90;93.10
27890;DHT22;15238;49.082;9.102;2023-06-04T06:55:04;16.20;93.00
27890;DHT22;15238;49.082;9.102;2023-06-04T06:57:05;16.60;92.60
27890;DHT22;15238;49.082;9.102;2023-06-04T06:59:09;17.10;91.70
27890;DHT22;15238;49.082;9.102;2023-06-04T07:01:09;17.40;90.90
27890;DHT22;15238;49.082;9.102;2023-06-04T07:03:10;17.70;90.40
27890;DHT22;15238;49.082;9.102;2023-06-04T07:05:11;17.80;89.80
27890;DHT22;15238;49.082;9.102;2023-06-04T07:07:11;18.00;91.00
27890;DHT22;15238;49.082;9.102;2023-06-04T07:09:13;18.10;91.00
27890;DHT22;15238;49.082;9.102;2023-06-04T07:11:13;18.20;89.70
27890;DHT22;15238;49.082;9.102;2023-06-04T07:13:14;18.00;89.80
27890;DHT22;15238;49.082;9.102;2023-06-04T07:15:15;18.00;90.80
27890;DHT22;15238;49.082;9.102;2023-06-04T07:17:16;18.20;89.40
27890;DHT22;15238;49.082;9.102;2023-06-04T07:19:16;18.50;89.70
27890;DHT22;15238;49.082;9.102;2023-06-04T07:21:17;18.20;90.00
27890;DHT22;15238;49.082;9.102;2023-06-04T07:23:19;18.60;89.40
27890;DHT22;15238;49.082;9.102;2023-06-04T07:25:20;18.60;88.00
27890;DHT22;15238;49.082;9.102;2023-06-04T07:27:21;18.60;88.60
27890;DHT22;15238;49.082;9.102;2023-06-04T07:29:22;18.90;89.50
27890;DHT22;15238;49.082;9.102;2023-06-04T07:31:23;19.10;87.90
27890;DHT22;15238;49.082;9.102;2023-06-04T07:33:24;19.30;87.90
27890;DHT22;15238;49.082;9.102;2023-06-04T07:35:24;19.70;85.30
27890;DHT22;15238;49.082;9.102;2023-06-04T07:37:25;20.00;85.20
27890;DHT22;15238;49.082;9.102;2023-06-04T07:39:25;20.20;85.00
27890;DHT22;15238;49.082;9.102;2023-06-04T07:41:26;20.20;80.10
27890;DHT22;15238;49.082;9.102;2023-06-04T07:43:27;20.20;81.80
27890;DHT22;15238;49.082;9.102;2023-06-04T07:45:27;20.50;82.80
27890;DHT22;15238;49.082;9.102;2023-06-04T07:47:29;20.80;81.60
27890;DHT22;15238;49.082;9.102;2023-06-04T07:49:30;20.30;84.00
27890;DHT22;15238;49.082;9.102;2023-06-04T07:51:31;20.60;84.00
27890;DHT22;15238;49.082;9.102;2023-06-04T07:53:31;20.60;82.80
27890;DHT22;15238;49.082;9.102;2023-06-04T07:55:32;20.40;83.50
27890;DHT22;15238;49.082;9.102;2023-06-04T07:57:34;20.50;81.40
27890;DHT22;15238;49.082;9.102;2023-06-04T07:59:34;20.30;83.20
27890;DHT22;15238;49.082;9.102;2023-06-04T08:01:35;20.30;85.00
27890;DHT22;15238;49.082;9.102;2023-06-04T08:03:35;20.40;84.80
27890;DHT22;15238;49.082;9.102;2023-06-04T08:05:37;20.60;83.70
27890;DHT22;15238;49.082;9.102;2023-06-04T08:07:37;21.10;82.20
27890;DHT22;15238;49.082;9.102;2023-06-04T08:09:38;21.00;81.10
27890;DHT22;15238;49.082;9.102;2023-06-04T08:11:40;21.10;83.00
27890;DHT22;15238;49.082;9.102;2023-06-04T08:13:41;21.50;82.00
27890;DHT22;15238;49.082;9.102;2023-06-04T08:15:42;21.60;81.20
27890;DHT22;15238;49.082;9.102;2023-06-04T08:17:43;21.50;83.30
27890;DHT22;15238;49.082;9.102;2023-06-04T08:19:43;21.60;82.00
27890;DHT22;15238;49.082;9.102;2023-06-04T08:21:44;21.60;81.30
27890;DHT22;15238;49.082;9.102;2023-06-04T08:23:45;21.60;82.20
27890;DHT22;15238;49.082;9.102;2023-06-04T08:25:46;21.50;83.10
27890;DHT22;15238;49.082;9.102;2023-06-04T08:27:46;21.70;80.60
27890;DHT22;15238;49.082;9.102;2023-06-04T08:29:47;21.90;77.50
27890;DHT22;15238;49.082;9.102;2023-06-04T08:31:48;21.90;77.20
27890;DHT22;15238;49.082;9.102;2023-06-04T08:33:48;22.10;77.60
27890;DHT22;15238;49.082;9.102;2023-06-04T08:35:49;22.00;78.60
27890;DHT22;15238;49.082;9.102;2023-06-04T08:37:49;21.90;78.70
27890;DHT22;15238;49.082;9.102;2023-06-04T08:39:50;22.20;79.80
27890;DHT22;15238;49.082;9.102;2023-06-04T08:41:52;22.40;79.60
27890;DHT22;15238;49.082;9.102;2023-06-04T08:43:58;22.30;78.50
27890;DHT22;15238;49.082;9.102;2023-06-04T08:45:59;21.90;80.90
27890;DHT22;15238;49.082;9.102;2023-06-04T08:48:02;22.30;81.30
27890;DHT22;15238;49.082;9.102;2023-06-04T08:50:07;22.00;80.70
27890;DHT22;15238;49.082;9.102;2023-06-04T08:52:10;22.00;82.60
27890;DHT22;15238;49.082;9.102;2023-06-04T08:54:11;22.30;79.60
27890;DHT22;15238;49.082;9.102;2023-06-04T08:56:12;22.40;79.30
27890;DHT22;15238;49.082;9.102;2023-06-04T08:58:13;22.60;79.10
27890;DHT22;15238;49.082;9.102;2023-06-04T09:00:15;22.90;78.40
27890;DHT22;15238;49.082;9.102;2023-06-04T09:02:17;22.90;78.30
27890;DHT22;15238;49.082;9.102;2023-06-04T09:04:18;23.00;77.70
27890;DHT22;15238;49.082;9.102;2023-06-04T09:06:18;22.70;80.90
27890;DHT22;15238;49.082;9.102;2023-06-04T09:08:19;23.00;80.30
27890;DHT22;15238;49.082;9.102;2023-06-04T09:10:23;23.10;80.20
27890;DHT22;15238;49.082;9.102;2023-06-04T09:12:26;22.80;78.40
27890;DHT22;15238;49.082;9.102;2023-06-04T09:14:27;22.50;80.50
27890;DHT22;15238;49.082;9.102;2023-06-04T09:16:28;22.60;79.50
27890;DHT22;15238;49.082;9.102;2023-06-04T09:18:36;22.70;77.20
27890;DHT22;15238;49.082;9.102;2023-06-04T09:20:37;22.90;80.20
27890;DHT22;15238;49.082;9.102;2023-06-04T09:22:38;22.70;81.20
27890;DHT22;15238;49.082;9.102;2023-06-04T09:24:40;22.80;80.60
27890;DHT22;15238;49.082;9.102;2023-06-04T09:26:41;23.20;78.90
27890;DHT22;15238;49.082;9.102;2023-06-04T09:28:43;23.20;77.00
27890;DHT22;15238;49.082;9.102;2023-06-04T09:30:53;23.20;78.70
27890;DHT22;15238;49.082;9.102;2023-06-04T09:32:54;23.20;76.70
27890;DHT22;15238;49.082;9.102;2023-06-04T09:34:56;23.20;76.70
27890;DHT22;15238;49.082;9.102;2023-06-04T09:36:58;23.80;78.90
27890;DHT22;15238;49.082;9.102;2023-06-04T09:38:58;23.90;76.00
27890;DHT22;15238;49.082;9.102;2023-06-04T09:40:59;23.80;72.50
27890;DHT22;15238;49.082;9.102;2023-06-04T09:43:01;23.50;75.90
27890;DHT22;15238;49.082;9.102;2023-06-04T09:45:03;23.80;74.60
27890;DHT22;15238;49.082;9.102;2023-06-04T09:47:03;24.00;75.90
27890;DHT22;15238;49.082;9.102;2023-06-04T09:49:05;24.30;73.60
27890;DHT22;15238;49.082;9.102;2023-06-04T09:51:12;24.40;75.10
27890;DHT22;15238;49.082;9.102;2023-06-04T09:53:17;24.00;71.00
27890;DHT22;15238;49.082;9.102;2023-06-04T09:55:19;23.80;73.10
27890;DHT22;15238;49.082;9.102;2023-06-04T09:57:21;24.20;70.50
27890;DHT22;15238;49.082;9.102;2023-06-04T09:59:21;24.40;73.60
27890;DHT22;15238;49.082;9.102;2023-06-04T10:01:23;24.80;66.80
27890;DHT22;15238;49.082;9.102;2023-06-04T10:03:36;24.70;69.80
27890;DHT22;15238;49.082;9.102;2023-06-04T10:05:37;24.50;68.80
27890;DHT22;15238;49.082;9.102;2023-06-04T10:07:39;24.80;69.90
27890;DHT22;15238;49.082;9.102;2023-06-04T10:09:43;24.30;69.50
27890;DHT22;15238;49.082;9.102;2023-06-04T10:11:54;24.40;71.30
27890;DHT22;15238;49.082;9.102;2023-06-04T10:14:17;24.30;68.40
27890;DHT22;15238;49.082;9.102;2023-06-04T10:16:20;24.40;65.90
27890;DHT22;15238;49.082;9.102;2023-06-04T10:18:21;24.50;69.70
27890;DHT22;15238;49.082;9.102;2023-06-04T10:20:22;24.80;68.70
27890;DHT22;15238;49.082;9.102;2023-06-04T10:22:23;25.00;68.50
27890;DHT22;15238;49.082;9.102;2023-06-04T10:24:24;24.60;68.60
27890;DHT22;15238;49.082;9.102;2023-06-04T10:26:26;24.70;66.40
27890;DHT22;15238;49.082;9.102;2023-06-04T10:28:27;24.70;69.00
27890;DHT22;15238;49.082;9.102;2023-06-04T10:30:30;24.00;68.80
27890;DHT22;15238;49.082;9.102;2023-06-04T10:32:30;24.40;67.10
27890;DHT22;15238;49.082;9.102;2023-06-04T10:34:31;24.30;68.50
27890;DHT22;15238;49.082;9.102;2023-06-04T10:36:45;24.20;69.60
27890;DHT22;15238;49.082;9.102;2023-06-04T10:38:52;24.50;66.70
27890;DHT22;15238;49.082;9.102;2023-06-04T10:40:53;24.90;67.40
27890;DHT22;15238;49.082;9.102;2023-06-04T10:42:54;25.40;65.10
27890;DHT22;15238;49.082;9.102;2023-06-04T10:44:55;25.30;68.70
27890;DHT22;15238;49.082;9.102;2023-06-04T10:46:57;25.50;65.90
27890;DHT22;15238;49.082;9.102;2023-06-04T10:48:57;25.10;68.70
27890;DHT22;15238;49.082;9.102;2023-06-04T10:50:58;25.10;64.90
27890;DHT22;15238;49.082;9.102;2023-06-04T10:52:59;24.80;68.80
27890;DHT22;15238;49.082;9.102;2023-06-04T10:55:07;25.10;68.30
27890;DHT22;15238;49.082;9.102;2023-06-04T10:57:12;25.30;67.00
27890;DHT22;15238;49.082;9.102;2023-06-04T10:59:15;25.50;64.50
27890;DHT22;15238;49.082;9.102;2023-06-04T11:01:32;25.30;68.30
27890;DHT22;15238;49.082;9.102;2023-06-04T11:03:37;24.70;63.10
27890;DHT22;15238;49.082;9.102;2023-06-04T11:05:39;25.00;61.80
27890;DHT22;15238;49.082;9.102;2023-06-04T11:07:47;25.30;62.00
27890;DHT22;15238;49.082;9.102;2023-06-04T11:09:49;25.70;64.50
27890;DHT22;15238;49.082;9.102;2023-06-04T11:11:59;25.30;65.80
27890;DHT22;15238;49.082;9.102;2023-06-04T11:14:10;25.30;67.60
27890;DHT22;15238;49.082;9.102;2023-06-04T11:16:20;25.20;65.60
27890;DHT22;15238;49.082;9.102;2023-06-04T11:18:22;25.00;64.50
27890;DHT22;15238;49.082;9.102;2023-06-04T11:20:23;25.30;66.30
27890;DHT22;15238;49.082;9.102;2023-06-04T11:22:24;25.30;61.90
27890;DHT22;15238;49.082;9.102;2023-06-04T11:24:24;25.30;60.60
27890;DHT22;15238;49.082;9.102;2023-06-04T11:26:35;25.40;63.90
27890;DHT22;15238;49.082;9.102;2023-06-04T11:28:36;25.40;65.50
27890;DHT22;15238;49.082;9.102;2023-06-04T11:30:37;25.70;60.60
27890;DHT22;15238;49.082;9.102;2023-06-04T11:32:37;26.00;58.90
27890;DHT22;15238;49.082;9.102;2023-06-04T11:34:38;25.60;61.70
27890;DHT22;15238;49.082;9.102;2023-06-04T11:36:39;25.50;62.90
27890;DHT22;15238;49.082;9.102;2023-06-04T11:38:39;25.40;63.20
27890;DHT22;15238;49.082;9.102;2023-06-04T11:40:40;25.60;62.10
27890;DHT22;15238;49.082;9.102;2023-06-04T11:42:43;25.50;63.30
27890;DHT22;15238;49.082;9.102;2023-06-04T11:44:45;25.80;62.60
27890;DHT22;15238;49.082;9.102;2023-06-04T11:46:49;26.00;64.00
27890;DHT22;15238;49.082;9.102;2023-06-04T11:48:53;26.10;59.50
27890;DHT22;15238;49.082;9.102;2023-06-04T11:50:54;26.00;59.00
27890;DHT22;15238;49.082;9.102;2023-06-04T11:52:58;25.20;59.00
27890;DHT22;15238;49.082;9.102;2023-06-04T11:54:59;25.10;61.90
27890;DHT22;15238;49.082;9.102;2023-06-04T11:57:00;25.20;61.80
27890;DHT22;15238;49.082;9.102;2023-06-04T11:59:01;25.00;60.10
27890;DHT22;15238;49.082;9.102;2023-06-04T12:01:02;25.30;59.70
27890;DHT22;15238;49.082;9.102;2023-06-04T12:03:02;25.50;59.90
27890;DHT22;15238;49.082;9.102;2023-06-04T12:05:16;25.40;59.40
27890;DHT22;15238;49.082;9.102;2023-06-04T12:07:22;25.50;58.30
27890;DHT22;15238;49.082;9.102;2023-06-04T12:09:26;25.40;59.50
27890;DHT22;15238;49.082;9.102;2023-06-04T12:11:34;25.20;57.50
27890;DHT22;15238;49.082;9.102;2023-06-04T12:13:37;25.50;61.50
27890;DHT22;15238;49.082;9.102;2023-06-04T12:15:38;25.50;58.90
27890;DHT22;15238;49.082;9.102;2023-06-04T12:17:52;25.40;60.00
27890;DHT22;15238;49.082;9.102;2023-06-04T12:19:53;25.60;57.00
27890;DHT22;15238;49.082;9.102;2023-06-04T12:22:02;25.80;55.70
27890;DHT22;15238;49.082;9.102;2023-06-04T12:24:11;26.00;57.80
27890;DHT22;15238;49.082;9.102;2023-06-04T12:26:24;26.10;56.30
27890;DHT22;15238;49.082;9.102;2023-06-04T12:28:29;25.60;58.70
27890;DHT22;15238;49.082;9.102;2023-06-04T12:30:40;25.50;58.20
27890;DHT22;15238;49.082;9.102;2023-06-04T12:32:40;25.00;59.50
27890;DHT22;15238;49.082;9.102;2023-06-04T12:34:42;25.10;57.80
27890;DHT22;15238;49.082;9.102;2023-06-04T12:36:43;25.10;57.40
27890;DHT22;15238;49.082;9.102;2023-06-04T12:38:43;25.30;58.40
27890;DHT22;15238;49.082;9.102;2023-06-04T12:40:44;25.10;57.70
27890;DHT22;15238;49.082;9.102;2023-06-04T12:42:44;25.40;57.50
27890;DHT22;15238;49.082;9.102;2023-06-04T12:44:45;25.20;57.90
27890;DHT22;15238;49.082;9.102;2023-06-04T12:46:46;25.50;56.60
27890;DHT22;15238;49.082;9.102;2023-06-04T12:48:47;25.40;55.40
27890;DHT22;15238;49.082;9.102;2023-06-04T12:50:47;25.30;59.50
27890;DHT22;15238;49.082;9.102;2023-06-04T12:52:48;25.80;55.60
27890;DHT22;15238;49.082;9.102;2023-06-04T12:54:48;25.90;54.90